Time;durP1;ratioP1;P1;durP2;ratioP2;P2;SDS_P1;SDS_P2;PMS_P1;PMS_P2;Temp;Humidity;BMP_temperature;BMP_pressure;BME280_temperature;BME280_humidity;BME280_pressure;Samples;Min_cycle;Max_cycle;Signal;HPM_P1;HPM_P2
2024/02/10 00:04:06;;;;;;;77.33;33.77;;;;;;;3.26;100.00;98438.16;5119416;56;1140814;-81
2024/02/10 00:09:12;;;;;;;71.83;31.43;;;;;;;3.30;100.00;98439.09;5106251;56;1140983;-81
2024/02/10 00:14:18;;;;;;;78.07;34.63;;;;;;;3.36;100.00;98428.64;4953147;57;1141222;-81
2024/02/10 00:19:24;;;;;;;76.33;35.57;;;;;;;3.43;100.00;98427.17;4948324;58;1141807;-81
2024/02/10 00:24:30;;;;;;;95.43;35.43;;;;;;;3.46;100.00;98424.31;4907935;58;1140897;-81
2024/02/10 00:29:37;;;;;;;66.13;32.40;;;;;;;3.48;100.00;98419.31;4871511;57;1238619;-82
2024/02/10 00:34:42;;;;;;;67.75;32.15;;;;;;;3.53;100.00;98420.22;5049634;56;1141275;-82
2024/02/10 00:39:48;;;;;;;70.30;34.60;;;;;;;3.57;100.00;98429.95;5041475;56;1233885;-81
2024/02/10 00:44:56;;;;;;;75.87;35.30;;;;;;;3.60;100.00;98434.45;4898068;57;1140825;-83
2024/02/10 00:50:03;;;;;;;78.25;36.70;;;;;;;3.63;100.00;98417.70;4936214;56;1140888;-82
2024/02/10 00:55:08;;;;;;;87.65;38.92;;;;;;;3.66;100.00;98430.05;4945277;57;1141055;-82
2024/02/10 01:00:17;;;;;;;82.80;35.97;;;;;;;3.71;100.00;98427.03;4972446;57;1140671;-83
2024/02/10 01:05:21;;;;;;;79.25;38.05;;;;;;;3.72;100.00;98428.69;5064603;56;1140938;-81
2024/02/10 01:10:30;;;;;;;97.93;38.87;;;;;;;3.69;100.00;98425.02;4928848;57;1140852;-81
2024/02/10 01:15:35;;;;;;;101.30;41.13;;;;;;;3.74;100.00;98435.93;4906088;57;1141137;-82
2024/02/10 01:20:40;;;;;;;84.53;38.00;;;;;;;3.77;100.00;98428.67;4930389;57;1143341;-82
2024/02/10 01:25:46;;;;;;;89.53;38.40;;;;;;;3.83;100.00;98428.62;4905556;57;1140892;-81
2024/02/10 01:30:51;;;;;;;92.77;38.23;;;;;;;3.85;100.00;98428.02;4998051;57;1140835;-82
2024/02/10 01:35:59;;;;;;;94.17;41.10;;;;;;;3.88;100.00;98429.91;5023568;57;1140772;-81
2024/02/10 01:41:05;;;;;;;85.77;39.50;;;;;;;3.92;100.00;98427.04;4946689;57;1140917;-81
2024/02/10 01:46:15;;;;;;;79.63;37.87;;;;;;;3.92;100.00;98415.27;4968594;57;1140670;-81
2024/02/10 01:51:23;;;;;;;83.83;36.93;;;;;;;3.98;100.00;98427.81;4945959;57;1141056;-81
2024/02/10 01:56:29;;;;;;;88.50;39.93;;;;;;;4.02;100.00;98427.91;5031924;57;1140792;-81
2024/02/10 02:01:37;;;;;;;85.03;38.20;;;;;;;4.03;100.00;98430.41;4932385;57;1140839;-81
2024/02/10 02:06:45;;;;;;;81.13;37.83;;;;;;;4.06;100.00;98418.38;5022636;57;1141235;-81
2024/02/10 02:11:51;;;;;;;92.37;40.57;;;;;;;4.09;100.00;98426.45;4979369;57;1141282;-81
2024/02/10 02:16:56;;;;;;;90.33;41.20;;;;;;;4.12;100.00;98430.13;4903054;59;1140862;-82
2024/02/10 02:22:02;;;;;;;81.30;37.87;;;;;;;4.16;100.00;98435.42;4831587;58;1141092;-81
2024/02/10 02:27:10;;;;;;;84.93;36.93;;;;;;;4.21;100.00;98433.26;4809635;58;1140605;-80
2024/02/10 02:32:15;;;;;;;86.53;39.53;;;;;;;4.24;100.00;98436.45;4848876;59;1140805;-81
2024/02/10 02:37:22;;;;;;;85.63;37.07;;;;;;;4.28;100.00;98433.07;4797519;60;1141025;-83
2024/02/10 02:42:28;;;;;;;79.47;36.07;;;;;;;4.28;100.00;98433.07;4826074;58;1140754;-82
2024/02/10 02:47:37;;;;;;;91.57;41.93;;;;;;;4.30;100.00;98430.33;5009361;57;1140878;-81
2024/02/10 02:52:43;;;;;;;93.40;41.37;;;;;;;4.28;100.00;98429.15;4944348;57;1140736;-82
2024/02/10 02:57:49;;;;;;;79.90;37.97;;;;;;;4.28;100.00;98420.50;4913171;58;1140969;-81
2024/02/10 03:02:59;;;;;;;93.93;40.70;;;;;;;4.30;100.00;98426.41;4982690;57;1140509;-81
2024/02/10 03:08:02;;;;;;;111.60;47.90;;;;;;;4.32;100.00;98425.31;4977272;58;1140484;-81
2024/02/10 03:13:08;;;;;;;100.60;44.40;;;;;;;4.35;100.00;98432.08;4821562;59;1143393;-81
2024/02/10 03:18:14;;;;;;;98.35;42.58;;;;;;;4.31;100.00;98424.14;4838848;58;1140943;-82
2024/02/10 03:23:20;;;;;;;91.00;39.60;;;;;;;4.24;100.00;98427.30;4892135;59;1139442;-82
2024/02/10 03:28:25;;;;;;;85.23;38.70;;;;;;;4.22;100.00;98432.30;4790982;59;1141240;-82
2024/02/10 03:33:34;;;;;;;99.27;41.63;;;;;;;4.21;100.00;98437.19;4859447;59;1140833;-82
2024/02/10 03:38:39;;;;;;;89.27;40.77;;;;;;;4.23;100.00;98433.97;4785860;59;1141064;-81
2024/02/10 03:43:45;;;;;;;102.70;42.00;;;;;;;4.24;100.00;98431.70;4781469;59;1140903;-81
2024/02/10 03:48:52;;;;;;;102.93;40.10;;;;;;;4.23;100.00;98439.20;4897622;58;1142672;-82
2024/02/10 03:53:58;;;;;;;85.33;37.47;;;;;;;4.27;100.00;98445.00;4965884;57;1143096;-81
2024/02/10 03:59:04;;;;;;;87.67;38.13;;;;;;;4.30;100.00;98440.31;4967390;57;1140682;-82
2024/02/10 04:04:09;;;;;;;89.27;40.93;;;;;;;4.36;100.00;98443.73;4935929;58;1140622;-82
2024/02/10 04:09:15;;;;;;;85.35;38.78;;;;;;;4.42;100.00;98441.91;4964000;57;1140665;-81
2024/02/10 04:14:20;;;;;;;88.87;38.40;;;;;;;4.47;100.00;98444.94;4968677;58;1140933;-82
2024/02/10 04:19:26;;;;;;;83.80;38.03;;;;;;;4.51;100.00;98440.28;4797139;59;1141190;-81
2024/02/10 04:24:32;;;;;;;79.37;40.43;;;;;;;4.51;100.00;98437.19;4811814;58;1140615;-81
2024/02/10 04:29:38;;;;;;;90.97;41.90;;;;;;;4.54;100.00;98438.72;4816405;58;1140788;-82
2024/02/10 04:34:44;;;;;;;90.97;40.48;;;;;;;4.56;100.00;98438.11;4764760;59;1141793;-81
2024/02/10 04:39:50;;;;;;;83.40;37.60;;;;;;;4.58;100.00;98432.27;4872014;58;1140934;-81
2024/02/10 04:44:58;;;;;;;83.37;38.87;;;;;;;4.58;100.00;98431.75;4897486;58;1140908;-82
2024/02/10 04:50:04;;;;;;;92.65;41.45;;;;;;;4.60;100.00;98433.77;4853256;58;1140947;-82
2024/02/10 04:55:10;;;;;;;104.60;44.33;;;;;;;4.61;100.00;98430.67;4909203;58;1141035;-82
2024/02/10 05:00:18;;;;;;;115.23;45.80;;;;;;;4.64;100.00;98425.17;4906654;58;1142945;-82
2024/02/10 05:05:25;;;;;;;95.67;45.13;;;;;;;4.67;100.00;98421.47;4953652;58;1143013;-82
2024/02/10 05:10:30;;;;;;;85.33;42.40;;;;;;;4.68;100.00;98420.02;4892616;58;1140991;-81
2024/02/10 05:15:36;;;;;;;105.17;52.57;;;;;;;4.71;100.00;98417.14;4822008;59;1141700;-82
2024/02/10 05:20:43;;;;;;;119.67;57.83;;;;;;;4.77;100.00;98418.38;4903395;57;1143079;-82
2024/02/10 05:25:49;;;;;;;95.02;43.48;;;;;;;4.82;100.00;98422.75;4830259;57;1143395;-81
2024/02/10 05:30:57;;;;;;;84.03;39.63;;;;;;;4.85;100.00;98422.48;4912644;58;1141169;-81
2024/02/10 05:36:02;;;;;;;90.90;42.90;;;;;;;4.87;100.00;98425.33;4868618;59;1140777;-81
2024/02/10 05:41:07;;;;;;;86.60;42.70;;;;;;;4.88;100.00;98420.44;4864189;59;1140660;-82
2024/02/10 05:46:13;;;;;;;90.77;44.63;;;;;;;4.90;100.00;98426.81;4899420;58;1140650;-81
2024/02/10 05:51:23;;;;;;;83.90;40.97;;;;;;;4.91;100.00;98423.23;4893501;58;1140803;-82
2024/02/10 05:56:28;;;;;;;90.47;39.83;;;;;;;4.93;100.00;98415.59;4943706;58;1140709;-81
2024/02/10 06:01:35;;;;;;;83.63;39.93;;;;;;;4.95;100.00;98418.09;4918615;58;1141032;-82
2024/02/10 06:06:42;;;;;;;88.97;41.50;;;;;;;4.99;100.00;98420.79;4933861;58;1141407;-81
2024/02/10 06:11:49;;;;;;;256.57;122.60;;;;;;;5.02;100.00;98422.31;4838374;58;1141404;-81
2024/02/10 06:16:57;;;;;;;243.93;127.17;;;;;;;5.05;100.00;98422.02;4758529;59;1145116;-81
2024/02/10 06:22:06;;;;;;;107.97;54.80;;;;;;;5.01;100.00;98424.59;4802279;59;1145547;-81
2024/02/10 06:27:11;;;;;;;77.17;38.90;;;;;;;5.00;100.00;98427.69;4856864;58;1143168;-81
2024/02/10 06:32:17;;;;;;;76.77;39.47;;;;;;;4.99;100.00;98428.66;4868707;58;1141020;-81
2024/02/10 06:37:25;;;;;;;77.03;37.93;;;;;;;5.01;100.00;98435.89;4905998;57;1140881;-80
2024/02/10 06:42:34;;;;;;;72.60;36.10;;;;;;;5.02;100.00;98431.00;4818758;57;1140496;-81
2024/02/10 06:47:40;;;;;;;72.67;37.83;;;;;;;5.06;100.00;98430.23;4956385;57;1140762;-79
2024/02/10 06:52:45;;;;;;;72.90;37.13;;;;;;;5.09;100.00;98425.55;4948257;57;1141051;-81
2024/02/10 06:57:52;;;;;;;77.90;39.50;;;;;;;5.14;100.00;98429.92;4993573;57;1140664;-78
2024/02/10 07:02:57;;;;;;;81.42;38.95;;;;;;;5.16;100.00;98434.55;4959790;57;1140991;-80
2024/02/10 07:08:05;;;;;;;81.07;37.20;;;;;;;5.19;100.00;98436.90;4972119;56;1141188;-80
2024/02/10 07:13:10;;;;;;;82.37;40.28;;;;;;;5.20;100.00;98430.66;5006782;57;1141008;-81
2024/02/10 07:18:16;;;;;;;82.02;41.18;;;;;;;5.24;100.00;98441.23;5004268;57;1140820;-81
2024/02/10 07:23:26;;;;;;;96.47;43.77;;;;;;;5.26;100.00;98436.69;4974457;56;1140989;-80
2024/02/10 07:28:29;;;;;;;98.83;41.70;;;;;;;5.31;100.00;98428.42;4994476;56;1140716;-81
2024/02/10 07:33:34;;;;;;;87.90;41.27;;;;;;;5.37;100.00;98437.51;4965600;57;1141021;-79
2024/02/10 07:38:40;;;;;;;75.47;37.77;;;;;;;5.39;100.00;98439.52;5054575;56;1140911;-77
2024/02/10 07:43:45;;;;;;;85.50;39.87;;;;;;;5.42;100.00;98447.94;5045814;57;1140940;-79
2024/02/10 07:48:51;;;;;;;79.87;39.03;;;;;;;5.46;100.00;98446.70;5016487;56;1141195;-79
2024/02/10 07:54:00;;;;;;;78.30;37.20;;;;;;;5.51;100.00;98452.83;5013028;57;1140752;-78
2024/02/10 07:59:05;;;;;;;82.60;36.67;;;;;;;5.56;100.00;98465.05;4986346;57;1141206;-79
2024/02/10 08:04:12;;;;;;;83.70;40.70;;;;;;;5.61;100.00;98468.10;4976760;57;1140827;-74
2024/02/10 08:09:18;;;;;;;76.90;40.57;;;;;;;5.64;100.00;98475.70;4979488;56;1140829;-75
2024/02/10 08:14:25;;;;;;;93.83;48.27;;;;;;;5.63;100.00;98470.11;4981269;57;1141057;-76
2024/02/10 08:19:31;;;;;;;87.83;47.93;;;;;;;5.70;100.00;98473.81;4881191;57;1141296;-74
2024/02/10 08:24:43;;;;;;;89.40;44.48;;;;;;;5.76;100.00;98489.50;4873424;57;1140936;-76
2024/02/10 08:29:48;;;;;;;84.65;41.05;;;;;;;5.79;100.00;98487.91;4945344;57;1140889;-73
2024/02/10 08:34:55;;;;;;;88.40;42.67;;;;;;;5.84;100.00;98498.31;4952712;57;1148079;-74
2024/02/10 08:40:02;;;;;;;96.57;43.48;;;;;;;5.90;100.00;98510.92;4928146;57;1141245;-79
2024/02/10 08:45:14;;;;;;;91.90;44.88;;;;;;;5.97;100.00;98517.25;4887943;58;1141104;-78
2024/02/10 08:50:18;;;;;;;88.07;44.40;;;;;;;6.01;100.00;98517.81;4832846;58;1141197;-80
2024/02/10 08:55:26;;;;;;;86.07;41.10;;;;;;;6.04;100.00;98519.34;4834126;58;1140569;-77
2024/02/10 09:00:31;;;;;;;91.10;38.73;;;;;;;6.06;100.00;98519.55;4862505;58;1140866;-80
2024/02/10 09:05:37;;;;;;;116.80;58.63;;;;;;;6.07;100.00;98526.94;4886486;58;1140970;-79
2024/02/10 09:10:43;;;;;;;90.03;43.17;;;;;;;6.10;100.00;98522.73;4811487;58;1143085;-79
2024/02/10 09:15:49;;;;;;;95.30;42.20;;;;;;;6.12;100.00;98526.02;4901089;57;1141035;-78
2024/02/10 09:20:54;;;;;;;93.52;40.28;;;;;;;6.10;100.00;98518.79;4916045;57;1141828;-79
2024/02/10 09:26:00;;;;;;;88.27;41.10;;;;;;;6.09;100.00;98519.27;4810191;59;1141006;-78
2024/02/10 09:31:13;;;;;;;98.90;44.20;;;;;;;6.11;100.00;98523.88;4869325;58;1141136;-79
2024/02/10 09:36:17;;;;;;;90.15;42.95;;;;;;;6.11;100.00;98521.25;4945097;57;1140914;-77
2024/02/10 09:41:24;;;;;;;101.33;44.50;;;;;;;6.12;100.00;98525.53;4940281;56;1141128;-80
2024/02/10 09:46:35;;;;;;;106.58;54.05;;;;;;;6.16;100.00;98535.27;4859076;58;1143254;-80
2024/02/10 09:51:45;;;;;;;81.87;40.70;;;;;;;6.19;100.00;98542.39;4893542;58;1143407;-78
2024/02/10 09:56:46;;;;;;;93.00;42.80;;;;;;;6.26;100.00;98540.84;4857573;59;1141052;-79
2024/02/10 10:01:54;;;;;;;105.30;50.55;;;;;;;6.32;100.00;98532.91;4838031;58;1141866;-78
2024/02/10 10:07:01;;;;;;;93.87;46.77;;;;;;;6.38;100.00;98523.65;4909327;57;1143160;-80
2024/02/10 10:12:13;;;;;;;119.40;52.97;;;;;;;6.43;100.00;98528.80;4904491;57;1141121;-78
2024/02/10 10:17:15;;;;;;;155.50;61.17;;;;;;;6.49;100.00;98531.36;4802756;58;1142905;-78
2024/02/10 10:22:21;;;;;;;121.47;53.55;;;;;;;6.57;100.00;98545.94;4769769;59;1142979;-79
2024/02/10 10:27:29;;;;;;;114.23;59.20;;;;;;;6.63;100.00;98544.87;4939661;58;1143015;-78
2024/02/10 10:32:36;;;;;;;101.73;49.60;;;;;;;6.70;100.00;98558.27;4926515;58;1143208;-77
2024/02/10 10:37:41;;;;;;;109.07;46.67;;;;;;;6.79;100.00;98559.20;4895444;58;1143336;-79
2024/02/10 10:42:48;;;;;;;106.53;46.70;;;;;;;6.85;100.00;98562.09;4985401;57;1186973;-78
2024/02/10 10:47:54;;;;;;;104.75;46.20;;;;;;;6.91;100.00;98552.31;4891255;58;1143124;-79
2024/02/10 10:53:11;;;;;;;105.40;46.70;;;;;;;7.05;100.00;98557.09;4740074;60;1143131;-78
2024/02/10 10:58:26;;;;;;;116.45;58.92;;;;;;;7.14;100.00;98547.53;4674925;60;1143165;-78
2024/02/10 11:03:32;;;;;;;118.27;55.07;;;;;;;7.24;100.00;98548.30;4854265;58;1143077;-78
2024/02/10 11:08:40;;;;;;;98.67;49.77;;;;;;;7.34;100.00;98545.13;4833666;58;1143152;-79
2024/02/10 11:13:45;;;;;;;105.87;52.67;;;;;;;7.47;100.00;98547.91;4811852;59;1140853;-79
2024/02/10 11:19:01;;;;;;;110.87;56.20;;;;;;;7.58;100.00;98547.70;4860713;58;1143719;-77
2024/02/10 11:24:19;;;;;;;159.82;76.72;;;;;;;7.72;100.00;98556.40;4849585;58;1143111;-78
2024/02/10 11:29:19;;;;;;;230.87;126.90;;;;;;;7.82;100.00;98554.52;4785074;59;1142916;-79
2024/02/10 11:34:25;;;;;;;131.05;58.73;;;;;;;7.89;100.00;98566.11;4752387;60;1144966;-77
2024/02/10 11:39:33;;;;;;;81.70;42.40;;;;;;;7.95;100.00;98575.20;4890788;58;1142913;-80
2024/02/10 11:44:40;;;;;;;129.93;71.50;;;;;;;8.00;100.00;98575.09;4865160;58;1141033;-79
2024/02/10 11:49:45;;;;;;;94.28;45.55;;;;;;;8.06;100.00;98571.88;4905154;58;1142736;-80
2024/02/10 11:54:52;;;;;;;107.13;49.50;;;;;;;8.08;100.00;98554.13;4827055;58;1141032;-79
2024/02/10 11:59:58;;;;;;;94.45;48.80;;;;;;;8.08;100.00;98554.13;4896324;58;1143788;-80
2024/02/10 12:05:03;;;;;;;104.53;51.20;;;;;;;8.16;100.00;98565.20;4861973;58;1140821;-78
2024/02/10 12:10:11;;;;;;;94.00;51.37;;;;;;;8.22;100.00;98560.66;4744521;59;1143001;-79
2024/02/10 12:15:18;;;;;;;101.73;49.27;;;;;;;8.26;100.00;98558.04;4765888;59;1140804;-77
2024/02/10 12:20:25;;;;;;;105.13;47.30;;;;;;;8.28;100.00;98553.94;4817134;58;1143058;-79
2024/02/10 12:25:32;;;;;;;101.80;50.43;;;;;;;8.31;100.00;98560.22;4911526;58;1143040;-79
2024/02/10 12:30:38;;;;;;;137.10;64.17;;;;;;;8.32;100.00;98555.33;4892321;58;1143299;-80
2024/02/10 12:35:46;;;;;;;120.77;54.80;;;;;;;8.37;100.00;98558.34;4906099;58;1143110;-78
2024/02/10 12:40:50;;;;;;;105.83;54.10;;;;;;;8.41;100.00;98553.91;4900790;57;1142631;-80
2024/02/10 12:45:56;;;;;;;116.88;52.08;;;;;;;8.45;100.00;98549.17;4957850;57;1142859;-78
2024/02/10 12:51:02;;;;;;;107.00;55.20;;;;;;;8.48;100.00;98548.87;4919159;58;1142995;-80
2024/02/10 12:56:10;;;;;;;107.23;49.13;;;;;;;8.52;100.00;98555.48;4894221;57;1143141;-77
2024/02/10 13:01:16;;;;;;;127.58;61.42;;;;;;;8.59;100.00;98550.41;4904581;58;1142800;-79
2024/02/10 13:06:23;;;;;;;104.20;53.83;;;;;;;8.67;100.00;98554.44;4968595;57;1142896;-80
2024/02/10 13:11:28;;;;;;;118.30;63.97;;;;;;;8.71;100.00;98543.90;4942798;57;1143591;-77
2024/02/10 13:16:34;;;;;;;132.70;64.20;;;;;;;8.73;100.00;98551.98;4967669;57;1143725;-78
2024/02/10 13:21:40;;;;;;;111.70;55.10;;;;;;;8.72;100.00;98549.51;4928518;57;1142771;-78
2024/02/10 13:26:45;;;;;;;145.73;64.67;;;;;;;8.69;100.00;98557.26;4850109;58;1143176;-78
2024/02/10 13:31:54;;;;;;;125.47;56.33;;;;;;;8.67;100.00;98555.27;4827886;59;1142964;-79
2024/02/10 14:03:19;;;;;;;146.43;71.87;;;;;;;8.58;100.00;98536.90;4958962;57;1142762;-78
2024/02/10 14:08:48;;;;;;;272.70;170.57;;;;;;;8.57;100.00;98535.24;4955248;57;1142571;-79
2024/02/10 14:13:55;;;;;;;182.53;102.13;;;;;;;8.61;100.00;98532.64;4954519;57;1145139;-80
2024/02/10 14:19:04;;;;;;;130.75;62.58;;;;;;;8.62;100.00;98525.08;4953614;58;1145163;-78
2024/02/10 14:24:11;;;;;;;186.73;102.75;;;;;;;8.58;100.00;98521.92;4932300;58;1187573;-78
2024/02/10 14:29:31;;;;;;;140.40;63.07;;;;;;;8.54;100.00;98529.82;4940134;58;1145274;-80
2024/02/10 14:39:35;;;;;;;127.93;55.20;;;;;;;8.43;100.00;98528.24;4867156;57;1143010;-79
2024/02/10 14:44:41;;;;;;;135.27;61.83;;;;;;;8.38;100.00;98534.97;4932161;57;1143118;-78
2024/02/10 14:49:49;;;;;;;128.70;55.70;;;;;;;8.33;100.00;98535.42;4918847;57;1143035;-78
2024/02/10 14:54:55;;;;;;;136.92;59.60;;;;;;;8.28;100.00;98535.02;4950562;57;1143226;-78
2024/02/10 15:00:01;;;;;;;138.75;50.78;;;;;;;8.25;100.00;98545.05;4898298;57;1142772;-76
2024/02/10 15:05:10;;;;;;;108.23;50.60;;;;;;;8.21;100.00;98547.16;4915967;57;1147136;-79
2024/02/10 15:10:14;;;;;;;118.87;46.53;;;;;;;8.20;100.00;98549.45;4939707;57;1143001;-77
2024/02/10 15:15:20;;;;;;;106.03;44.63;;;;;;;8.20;100.00;98554.71;4999545;57;1143033;-79
2024/02/10 15:20:26;;;;;;;112.63;48.37;;;;;;;8.18;100.00;98549.26;4929596;57;1142913;-77
2024/02/10 15:25:32;;;;;;;110.07;43.83;;;;;;;8.13;100.00;98553.66;4971884;58;1142646;-76
2024/02/10 15:30:38;;;;;;;120.30;48.63;;;;;;;8.12;100.00;98555.95;4998181;57;1143041;-79
2024/02/10 15:35:46;;;;;;;102.37;48.60;;;;;;;8.09;100.00;98564.17;5000003;57;1142487;-77
2024/02/10 15:40:59;;;;;;;103.97;47.73;;;;;;;8.06;100.00;98569.24;4901959;58;1143260;-78
2024/02/10 15:46:05;;;;;;;107.87;46.60;;;;;;;8.06;100.00;98578.45;5086952;57;1143039;-77
2024/02/10 15:51:11;;;;;;;140.77;57.03;;;;;;;8.02;100.00;98583.67;4967427;57;1142669;-79
2024/02/10 15:56:17;;;;;;;163.30;47.73;;;;;;;8.00;100.00;98579.53;4939575;57;1143498;-80
2024/02/10 16:01:24;;;;;;;108.63;49.00;;;;;;;7.94;100.00;98586.73;4963927;57;1143198;-78
2024/02/10 16:06:30;;;;;;;99.40;45.90;;;;;;;7.87;100.00;98588.29;5017895;56;1143180;-79
2024/02/10 16:11:35;;;;;;;123.53;52.80;;;;;;;7.82;100.00;98584.78;4965150;57;1140972;-79
2024/02/10 16:16:41;;;;;;;142.00;54.30;;;;;;;7.75;100.00;98589.83;5007530;57;1152737;-80
2024/02/10 16:21:46;;;;;;;141.53;57.93;;;;;;;7.70;100.00;98595.18;4969950;58;1143035;-80
2024/02/10 16:26:52;;;;;;;148.57;55.77;;;;;;;7.63;100.00;98595.45;4947495;57;1142699;-79
2024/02/10 16:31:58;;;;;;;150.77;63.00;;;;;;;7.55;100.00;98599.28;4940311;57;1142980;-79
2024/02/10 16:37:06;;;;;;;132.00;55.60;;;;;;;7.50;100.00;98601.52;5014332;56;1142901;-79
2024/02/10 16:42:12;;;;;;;114.20;55.03;;;;;;;7.44;100.00;98613.95;4928992;57;1142894;-77
2024/02/10 16:47:18;;;;;;;138.27;57.17;;;;;;;7.41;100.00;98626.91;4915564;57;1143078;-79
2024/02/10 16:52:25;;;;;;;124.10;47.87;;;;;;;7.41;100.00;98627.73;4977130;57;1143058;-77
2024/02/10 16:57:32;;;;;;;143.07;53.95;;;;;;;7.40;100.00;98633.96;4983448;57;1143118;-77
2024/02/10 17:02:37;;;;;;;121.33;51.57;;;;;;;7.39;100.00;98638.05;4956529;57;1142881;-79
2024/02/10 17:07:43;;;;;;;97.27;43.03;;;;;;;7.38;100.00;98650.37;4988524;57;1143093;-79
2024/02/10 17:12:49;;;;;;;134.50;44.35;;;;;;;7.37;100.00;98646.08;4975876;57;1141555;-78
2024/02/10 17:17:54;;;;;;;183.25;67.78;;;;;;;7.37;100.00;98651.34;4868164;58;1143446;-79
2024/02/10 17:23:00;;;;;;;148.83;67.97;;;;;;;7.41;100.00;98655.83;4931638;58;1142852;-78
2024/02/10 17:28:06;;;;;;;110.80;47.33;;;;;;;7.45;100.00;98648.00;4894443;58;1143336;-76
2024/02/10 17:33:13;;;;;;;110.40;42.20;;;;;;;7.49;100.00;98655.92;4894585;58;1143301;-79
2024/02/10 17:38:21;;;;;;;106.12;41.70;;;;;;;7.54;100.00;98662.08;4876647;58;1143047;-78
2024/02/10 17:43:27;;;;;;;121.07;47.33;;;;;;;7.55;100.00;98657.98;4975738;57;1143004;-82
2024/02/10 17:48:34;;;;;;;88.47;41.40;;;;;;;7.57;100.00;98657.84;4990852;56;1143109;-79
2024/02/10 17:53:39;;;;;;;101.00;42.33;;;;;;;7.60;100.00;98650.98;5075344;57;1140847;-77
2024/02/10 17:58:46;;;;;;;116.00;42.40;;;;;;;7.60;100.00;98655.75;5078371;57;1143044;-77
2024/02/10 18:03:52;;;;;;;91.67;43.57;;;;;;;7.62;100.00;98649.04;5058386;57;1142726;-79
2024/02/10 18:08:57;;;;;;;94.30;42.17;;;;;;;7.62;100.00;98641.98;5026535;57;1140765;-80
2024/02/10 18:14:03;;;;;;;89.20;42.47;;;;;;;7.65;100.00;98639.02;4998087;58;1141316;-78
2024/02/10 18:19:10;;;;;;;98.10;46.80;;;;;;;7.66;100.00;98647.75;4968807;58;1141459;-77
2024/02/10 18:24:16;;;;;;;143.28;55.98;;;;;;;7.67;100.00;98640.20;4943440;58;1140921;-78
2024/02/10 18:29:21;;;;;;;223.53;98.40;;;;;;;7.70;100.00;98637.28;4994312;58;1143320;-77
2024/02/10 18:34:28;;;;;;;185.20;87.90;;;;;;;7.72;100.00;98634.02;4895632;59;1142899;-79
2024/02/10 18:39:34;;;;;;;128.53;64.63;;;;;;;7.73;100.00;98625.98;4963680;58;1142957;-78
2024/02/10 18:44:43;;;;;;;122.00;55.60;;;;;;;7.75;100.00;98634.56;4953554;58;1142953;-77
2024/02/10 18:49:51;;;;;;;125.67;54.63;;;;;;;7.75;100.00;98633.24;4974475;58;1142686;-77
2024/02/10 18:54:57;;;;;;;141.88;60.70;;;;;;;7.74;100.00;98631.59;4927956;58;1142911;-77
2024/02/10 19:00:04;;;;;;;128.45;61.50;;;;;;;7.75;100.00;98629.30;4832730;58;1143049;-77
2024/02/10 19:10:49;;;;;;;133.57;57.17;;;;;;;7.76;100.00;98637.53;4928372;58;1142771;-77
2024/02/10 19:15:55;;;;;;;102.45;51.75;;;;;;;7.75;100.00;98645.57;4898656;58;1142810;-77
2024/02/10 19:21:00;;;;;;;135.77;79.13;;;;;;;7.77;100.00;98652.84;4919129;58;1142876;-79
2024/02/10 19:26:06;;;;;;;125.57;66.57;;;;;;;7.78;100.00;98661.08;5001414;58;1143010;-80
2024/02/10 19:31:14;;;;;;;113.17;57.93;;;;;;;7.78;100.00;98661.08;4879943;58;1143363;-77
2024/02/10 19:36:21;;;;;;;99.87;50.55;;;;;;;7.78;100.00;98658.44;4851618;59;1143271;-77
2024/02/10 19:41:29;;;;;;;96.60;50.90;;;;;;;7.75;100.00;98670.57;4921439;58;1140732;-77
2024/02/10 19:46:36;;;;;;;103.53;52.93;;;;;;;7.75;100.00;98680.61;4897604;58;1140944;-80
2024/02/10 19:51:42;;;;;;;104.50;51.28;;;;;;;7.78;100.00;98681.30;4860814;58;1143847;-81
2024/02/10 19:56:49;;;;;;;99.77;48.40;;;;;;;7.80;100.00;98680.63;4875539;58;1142875;-81
2024/02/10 20:01:55;;;;;;;111.67;49.27;;;;;;;7.82;100.00;98682.64;4885564;58;1141454;-81
2024/02/10 20:07:04;;;;;;;106.97;48.10;;;;;;;7.85;100.00;98688.93;4887782;58;1143260;-81
2024/02/10 20:12:10;;;;;;;99.40;49.08;;;;;;;7.85;100.00;98689.77;4927780;58;1143034;-80
2024/02/10 20:17:16;;;;;;;97.57;46.42;;;;;;;7.89;100.00;98687.67;5019334;57;1140838;-80
2024/02/10 20:22:23;;;;;;;102.83;50.87;;;;;;;7.89;100.00;98690.30;4861781;57;1140950;-80
2024/02/10 20:27:29;;;;;;;95.60;47.00;;;;;;;7.88;100.00;98682.06;4829995;60;1143025;-78
2024/02/10 20:32:39;;;;;;;98.97;48.87;;;;;;;7.86;100.00;98675.63;4882348;59;1141031;-79
2024/02/10 20:37:44;;;;;;;101.57;52.40;;;;;;;7.90;100.00;98674.86;4982373;57;1140818;-78
2024/02/10 20:42:56;;;;;;;97.53;48.47;;;;;;;7.91;100.00;98672.08;4936329;57;1143123;-79
2024/02/10 20:48:02;;;;;;;90.27;45.63;;;;;;;7.93;100.00;98666.67;5030546;57;1141016;-78
2024/02/10 20:53:07;;;;;;;92.83;45.30;;;;;;;7.93;100.00;98664.04;5064654;57;1140777;-79
2024/02/10 20:58:16;;;;;;;104.97;45.77;;;;;;;7.93;100.00;98662.72;5018142;57;1140695;-78
2024/02/10 21:03:23;;;;;;;90.60;44.40;;;;;;;7.92;100.00;98652.68;4956851;57;1153605;-79
2024/02/10 21:08:34;;;;;;;92.23;45.40;;;;;;;7.89;100.00;98647.70;4976614;57;1140961;-79
2024/02/10 21:13:41;;;;;;;81.08;41.08;;;;;;;7.89;100.00;98651.66;4873231;58;1140882;-81
2024/02/10 21:18:49;;;;;;;92.23;45.50;;;;;;;7.88;100.00;98650.48;4957158;57;1140889;-82
2024/02/10 21:23:57;;;;;;;101.33;47.80;;;;;;;7.84;100.00;98635.47;4955640;57;1140941;-79
2024/02/10 21:29:08;;;;;;;94.73;47.13;;;;;;;7.82;100.00;98643.99;5005392;57;1142627;-80
2024/02/10 21:34:14;;;;;;;93.00;47.00;;;;;;;7.78;100.00;98642.66;5076423;57;1140762;-78
2024/02/10 21:39:25;;;;;;;85.97;44.55;;;;;;;7.75;100.00;98633.24;5003901;57;1141415;-82
2024/02/10 21:44:30;;;;;;;96.83;47.70;;;;;;;7.71;100.00;98634.99;4991728;57;1141066;-77
2024/02/10 21:49:36;;;;;;;96.33;47.93;;;;;;;7.64;100.00;98620.27;4971976;57;1140666;-77
2024/02/10 21:54:45;;;;;;;99.70;47.20;;;;;;;7.57;100.00;98619.21;4983881;57;1141261;-77
2024/02/10 21:59:49;;;;;;;94.70;45.07;;;;;;;7.54;100.00;98615.55;5041987;57;1141087;-80
2024/02/10 22:04:54;;;;;;;87.87;44.17;;;;;;;7.54;100.00;98617.36;4976941;57;1141003;-81
2024/02/10 22:10:00;;;;;;;96.85;45.78;;;;;;;7.51;100.00;98611.89;4939005;57;1140868;-79
2024/02/10 22:15:06;;;;;;;107.70;41.70;;;;;;;7.47;100.00;98621.07;5002984;57;1141340;-79
2024/02/10 22:20:12;;;;;;;91.25;43.20;;;;;;;7.42;100.00;98621.98;4953324;57;1143356;-79
2024/02/10 22:25:20;;;;;;;86.55;39.73;;;;;;;7.35;100.00;98618.27;5006110;57;1141115;-79
2024/02/10 22:30:26;;;;;;;78.13;37.80;;;;;;;7.30;100.00;98617.89;4952993;57;1141032;-78
2024/02/10 22:35:31;;;;;;;106.67;38.50;;;;;;;7.28;100.00;98617.20;4913220;56;1140789;-79
2024/02/10 22:40:40;;;;;;;79.73;34.00;;;;;;;7.26;100.00;98621.77;5006444;57;1143067;-80
2024/02/10 22:45:44;;;;;;;74.83;35.47;;;;;;;7.23;100.00;98617.62;4972225;58;1141117;-78
2024/02/10 22:50:50;;;;;;;69.83;35.87;;;;;;;7.18;100.00;98619.05;4979285;57;1140738;-78
2024/02/10 22:55:55;;;;;;;62.37;33.67;;;;;;;7.11;100.00;98617.47;5052918;57;1141261;-78
2024/02/10 23:01:02;;;;;;;60.67;33.30;;;;;;;7.07;100.00;98612.15;5023173;57;1140983;-76
2024/02/10 23:06:13;;;;;;;54.03;29.53;;;;;;;7.02;100.00;98614.40;4994135;57;1141593;-80
2024/02/10 23:11:21;;;;;;;62.53;31.27;;;;;;;7.00;100.00;98594.83;5000149;57;1140995;-80
2024/02/10 23:16:27;;;;;;;55.97;29.90;;;;;;;7.00;100.00;98597.94;4919214;58;1140960;-79
2024/02/10 23:21:30;;;;;;;63.60;30.07;;;;;;;7.01;100.00;98592.55;4971008;56;1140691;-79
2024/02/10 23:26:39;;;;;;;49.57;29.20;;;;;;;7.00;100.00;98580.38;5024725;56;1140780;-80